createdAt,value
2019-04-06T00:01:34.434Z,100.00
2019-04-06T00:04:01.605Z,100.00
2019-04-06T00:06:28.689Z,100.00
2019-04-06T00:08:55.964Z,100.00
2019-04-06T00:11:23.104Z,100.00
2019-04-06T00:13:50.221Z,100.00
2019-04-06T00:16:17.379Z,100.00
2019-04-06T00:18:44.611Z,100.00
2019-04-06T00:21:13.875Z,100.00
2019-04-06T00:23:40.966Z,100.00
2019-04-06T00:26:08.138Z,100.00
2019-04-06T00:28:35.220Z,100.00
2019-04-06T00:31:22.117Z,100.00
2019-04-06T00:33:49.422Z,100.00
2019-04-06T00:36:16.614Z,100.00
2019-04-06T00:38:43.766Z,100.00
2019-04-06T00:41:11.423Z,100.00
2019-04-06T00:43:38.628Z,100.00
2019-04-06T00:46:05.753Z,100.00
2019-04-06T00:48:32.957Z,100.00
2019-04-06T00:51:00.091Z,100.00
2019-04-06T00:53:27.526Z,100.00
2019-04-06T00:55:55.852Z,100.00
2019-04-06T00:58:23.488Z,100.00
2019-04-06T01:00:52.105Z,100.00
2019-04-06T01:03:19.187Z,100.00
2019-04-06T01:05:46.603Z,100.00
2019-04-06T01:08:13.862Z,100.00
2019-04-06T01:10:40.956Z,100.00
2019-04-06T01:13:08.036Z,100.00
2019-04-06T01:15:35.188Z,100.00
2019-04-06T01:18:02.362Z,100.00
2019-04-06T01:20:29.470Z,100.00
2019-04-06T01:22:57.466Z,100.00
2019-04-06T01:25:24.634Z,100.00
2019-04-06T01:27:51.718Z,100.00
2019-04-06T01:30:18.847Z,100.00
2019-04-06T01:32:46.111Z,100.00
2019-04-06T01:35:13.196Z,100.00
2019-04-06T01:37:40.466Z,100.00
2019-04-06T01:40:07.869Z,100.00
2019-04-06T01:42:35.246Z,100.00
2019-04-06T01:45:02.484Z,100.00
2019-04-06T01:47:29.568Z,100.00
2019-04-06T01:49:56.654Z,100.00
2019-04-06T01:52:23.773Z,100.00
2019-04-06T01:54:50.878Z,100.00
2019-04-06T01:57:18.089Z,100.00
2019-04-06T01:59:45.219Z,100.00
2019-04-06T02:02:19.297Z,100.00
2019-04-06T02:04:47.633Z,100.00
2019-04-06T02:07:14.835Z,100.00
2019-04-06T02:09:41.986Z,100.00
2019-04-06T02:12:09.077Z,100.00
2019-04-06T02:14:36.277Z,100.00
2019-04-06T02:17:03.398Z,100.00
2019-04-06T02:20:11.677Z,100.00
2019-04-06T02:22:38.828Z,100.00
2019-04-06T02:25:06.630Z,100.00
2019-04-06T02:27:33.998Z,100.00
2019-04-06T02:30:21.317Z,100.00
2019-04-06T02:33:20.170Z,100.00
2019-04-06T02:36:06.839Z,100.00
2019-04-06T02:38:52.560Z,100.00
2019-04-06T02:41:39.270Z,100.00
2019-04-06T02:44:06.381Z,100.00
2019-04-06T02:46:33.560Z,100.00
2019-04-06T02:49:00.660Z,100.00
2019-04-06T02:51:27.734Z,100.00
2019-04-06T02:53:54.818Z,100.00
2019-04-06T02:56:59.106Z,100.00
2019-04-06T02:59:26.272Z,100.00
2019-04-06T03:01:53.377Z,100.00
2019-04-06T03:04:20.504Z,100.00
2019-04-06T03:06:47.582Z,100.00
2019-04-06T03:09:14.665Z,100.00
2019-04-06T03:11:41.787Z,100.00
2019-04-06T03:14:08.840Z,100.00
2019-04-06T03:16:37.728Z,100.00
2019-04-06T03:19:04.967Z,100.00
2019-04-06T03:21:32.049Z,100.00
2019-04-06T03:23:59.184Z,100.00
2019-04-06T03:26:29.730Z,100.00
2019-04-06T03:28:57.281Z,100.00
2019-04-06T03:31:27.391Z,100.00
2019-04-06T03:33:53.402Z,100.00
2019-04-06T03:36:20.765Z,100.00
2019-04-06T03:38:47.913Z,100.00
2019-04-06T03:41:15.322Z,100.00
2019-04-06T03:43:42.417Z,100.00
2019-04-06T03:46:09.517Z,100.00
2019-04-06T03:48:36.601Z,100.00
2019-04-06T03:51:09.444Z,100.00
2019-04-06T03:53:36.720Z,100.00
2019-04-06T03:56:03.903Z,100.00
2019-04-06T03:58:30.963Z,100.00
2019-04-06T04:00:58.040Z,100.00
2019-04-06T04:03:25.170Z,100.00
2019-04-06T04:05:52.217Z,100.00
2019-04-06T04:08:25.239Z,100.00
2019-04-06T04:10:52.299Z,100.00
2019-04-06T04:13:19.362Z,100.00
2019-04-06T04:15:46.785Z,100.00
2019-04-06T04:18:13.845Z,100.00
2019-04-06T04:20:40.891Z,100.00
2019-04-06T04:23:07.990Z,100.00
2019-04-06T04:25:35.041Z,100.00
2019-04-06T04:28:02.085Z,100.00
2019-04-06T04:30:32.812Z,100.00
2019-04-06T04:32:58.141Z,100.00
2019-04-06T04:35:25.197Z,100.00
2019-04-06T04:37:58.396Z,100.00
2019-04-06T04:40:26.712Z,100.00
2019-04-06T04:42:53.745Z,100.00
2019-04-06T04:45:20.828Z,100.00
2019-04-06T04:47:50.143Z,100.00
2019-04-06T04:50:16.868Z,100.00
2019-04-06T04:52:44.048Z,100.00
2019-04-06T04:55:11.206Z,100.00
2019-04-06T04:57:41.250Z,100.00
2019-04-06T05:00:07.911Z,100.00
2019-04-06T05:02:34.977Z,100.00
2019-04-06T05:05:02.203Z,100.00
2019-04-06T05:07:29.474Z,100.00
2019-04-06T05:09:56.476Z,100.00
2019-04-06T05:12:23.572Z,100.00
2019-04-06T05:14:57.734Z,100.00
2019-04-06T05:17:24.806Z,100.00
2019-04-06T05:19:51.895Z,100.00
2019-04-06T05:22:18.932Z,100.00
2019-04-06T05:24:46.002Z,100.00
2019-04-06T05:27:13.209Z,100.00
2019-04-06T05:29:40.374Z,100.00
2019-04-06T05:32:07.428Z,100.00
2019-04-06T05:34:34.690Z,100.00
2019-04-06T05:37:01.773Z,100.00
2019-04-06T05:39:30.266Z,100.00
2019-04-06T05:41:57.318Z,100.00
2019-04-06T05:44:24.362Z,100.00
2019-04-06T05:46:51.514Z,100.00
2019-04-06T05:49:19.787Z,100.00
2019-04-06T05:51:47.272Z,100.00
2019-04-06T05:54:16.164Z,100.00
2019-04-06T05:56:43.294Z,100.00
2019-04-06T05:59:10.908Z,100.00
2019-04-06T06:01:40.279Z,100.00
2019-04-06T06:04:08.851Z,100.00
2019-04-06T06:06:36.161Z,100.00
2019-04-06T06:09:05.697Z,100.00
2019-04-06T06:11:32.798Z,100.00
2019-04-06T06:13:59.845Z,100.00
2019-04-06T06:16:26.906Z,100.00
2019-04-06T06:18:54.011Z,100.00
2019-04-06T06:21:21.197Z,100.00
2019-04-06T06:23:48.295Z,100.00
2019-04-06T06:26:15.458Z,100.00
2019-04-06T06:28:42.510Z,100.00
2019-04-06T06:31:09.659Z,100.00
2019-04-06T06:33:36.758Z,100.00
2019-04-06T06:36:04.203Z,100.00
2019-04-06T06:38:31.536Z,100.00
2019-04-06T06:40:58.667Z,100.00
2019-04-06T06:43:25.725Z,100.00
2019-04-06T06:45:52.802Z,100.00
2019-04-06T06:48:19.927Z,100.00
2019-04-06T06:50:46.994Z,100.00
2019-04-06T06:53:14.163Z,100.00
2019-04-06T06:55:41.372Z,100.00
2019-04-06T06:58:08.435Z,100.00
2019-04-06T07:00:35.502Z,100.00
2019-04-06T07:03:02.593Z,100.00
2019-04-06T07:05:29.756Z,100.00
2019-04-06T07:07:56.815Z,100.00
2019-04-06T07:10:23.932Z,100.00
2019-04-06T07:12:51.006Z,100.00
2019-04-06T07:15:18.209Z,100.00
2019-04-06T07:17:45.581Z,100.00
2019-04-06T07:20:13.555Z,100.00
2019-04-06T07:22:40.662Z,100.00
2019-04-06T07:25:08.269Z,100.00
2019-04-06T07:27:35.468Z,100.00
2019-04-06T07:30:03.159Z,100.00
2019-04-06T07:32:30.316Z,100.00
2019-04-06T07:34:57.641Z,100.00
2019-04-06T07:37:24.724Z,100.00
2019-04-06T07:39:51.861Z,100.00
2019-04-06T07:42:18.914Z,100.00
2019-04-06T07:44:45.978Z,100.00
2019-04-06T07:47:13.124Z,100.00
2019-04-06T07:49:40.276Z,100.00
2019-04-06T07:52:07.370Z,100.00
2019-04-06T07:54:34.421Z,100.00
2019-04-06T07:57:01.490Z,100.00
2019-04-06T07:59:28.583Z,100.00
2019-04-06T08:01:55.768Z,100.00
2019-04-06T08:04:22.835Z,100.00
2019-04-06T08:06:50.007Z,100.00
2019-04-06T08:09:17.142Z,100.00
2019-04-06T08:11:44.217Z,100.00
2019-04-06T08:14:11.323Z,100.00
2019-04-06T08:16:38.496Z,100.00
2019-04-06T08:19:05.558Z,100.00
2019-04-06T08:21:32.641Z,100.00
2019-04-06T08:24:05.900Z,100.00
2019-04-06T08:26:33.144Z,100.00
2019-04-06T08:29:02.451Z,100.00
2019-04-06T08:31:30.986Z,100.00
2019-04-06T08:33:58.230Z,100.00
2019-04-06T08:36:25.395Z,100.00
2019-04-06T08:38:52.653Z,100.00
2019-04-06T08:41:19.726Z,100.00
2019-04-06T08:43:46.888Z,100.00
2019-04-06T08:46:14.034Z,100.00
2019-04-06T08:48:41.150Z,100.00
2019-04-06T08:51:08.296Z,100.00
2019-04-06T08:53:35.432Z,99.92
2019-04-06T08:56:02.504Z,99.94
2019-04-06T08:58:29.577Z,98.84
2019-04-06T09:00:56.905Z,98.80
2019-04-06T09:03:24.188Z,97.67
2019-04-06T09:05:51.382Z,96.60
2019-04-06T09:08:18.443Z,95.91
2019-04-06T09:10:46.041Z,94.98
2019-04-06T09:13:13.254Z,94.35
2019-04-06T09:15:40.417Z,93.39
2019-04-06T09:18:07.513Z,91.71
2019-04-06T09:20:34.608Z,89.99
2019-04-06T09:23:01.777Z,88.32
2019-04-06T09:25:29.129Z,87.06
2019-04-06T09:27:56.241Z,86.04
2019-04-06T09:30:23.305Z,85.48
2019-04-06T09:32:50.355Z,85.27
2019-04-06T09:35:35.981Z,85.63
2019-04-06T09:38:03.348Z,85.35
2019-04-06T09:40:30.479Z,84.75
2019-04-06T09:42:57.611Z,84.33
2019-04-06T09:45:43.794Z,81.97
2019-04-06T09:48:33.684Z,80.01
2019-04-06T09:51:20.453Z,79.68
2019-04-06T09:54:07.774Z,79.20
2019-04-06T09:57:03.797Z,79.57
2019-04-06T09:59:40.694Z,79.74
2019-04-06T10:02:17.403Z,78.98
2019-04-06T10:05:02.923Z,79.11
2019-04-06T10:07:55.249Z,79.52
2019-04-06T10:10:40.537Z,78.35
2019-04-06T10:13:30.395Z,78.37
2019-04-06T10:16:03.825Z,77.94
2019-04-06T10:18:53.258Z,77.36
2019-04-06T10:21:38.776Z,76.73
2019-04-06T10:24:24.149Z,76.10
2019-04-06T10:27:09.221Z,75.96
2019-04-06T10:30:05.050Z,75.24
2019-04-06T10:33:09.853Z,73.84
2019-04-06T10:35:59.252Z,73.21
2019-04-06T10:38:39.024Z,73.48
2019-04-06T10:41:18.336Z,73.40
2019-04-06T10:44:03.771Z,73.12
2019-04-06T10:46:37.418Z,72.87
2019-04-06T10:49:30.411Z,73.13
2019-04-06T10:52:15.885Z,73.60
2019-04-06T10:55:01.730Z,74.15
2019-04-06T10:57:47.876Z,74.02
2019-04-06T11:00:50.189Z,73.71
2019-04-06T11:03:31.519Z,73.89
2019-04-06T11:06:18.433Z,74.01
2019-04-06T11:08:50.390Z,74.71
2019-04-06T11:11:36.955Z,73.86
2019-04-06T11:14:22.467Z,73.44
2019-04-06T11:17:11.403Z,71.47
2019-04-06T11:19:57.108Z,71.96
2019-04-06T11:22:42.602Z,72.33
2019-04-06T11:25:21.304Z,72.67
2019-04-06T11:28:17.209Z,71.88
2019-04-06T11:31:02.969Z,72.03
2019-04-06T11:33:48.924Z,72.11
2019-04-06T11:36:29.815Z,71.74
2019-04-06T11:39:15.937Z,72.02
2019-04-06T11:42:01.384Z,70.90
2019-04-06T11:44:43.174Z,71.77
2019-04-06T11:47:22.491Z,71.54
2019-04-06T11:49:57.567Z,70.92
2019-04-06T11:52:44.353Z,72.03
2019-04-06T11:55:18.316Z,71.33
2019-04-06T11:58:04.310Z,71.28
2019-04-06T12:00:49.438Z,71.43
2019-04-06T12:03:35.136Z,70.76
2019-04-06T12:06:26.277Z,69.19
2019-04-06T12:09:11.759Z,69.75
2019-04-06T12:12:07.657Z,69.07
2019-04-06T12:14:54.304Z,69.09
2019-04-06T12:20:55.358Z,68.57
2019-04-06T12:23:42.697Z,69.08
2019-04-06T12:26:19.646Z,70.04
2019-04-06T12:29:22.901Z,71.37
2019-04-06T12:32:10.070Z,71.77
2019-04-06T12:34:54.165Z,69.66
2019-04-06T12:38:06.083Z,68.53
2019-04-06T12:40:56.363Z,67.16
2019-04-06T12:43:48.935Z,66.29
2019-04-06T12:46:41.971Z,65.27
2019-04-06T12:49:31.603Z,64.29
2019-04-06T12:52:20.916Z,64.11
2019-04-06T12:55:10.567Z,63.82
2019-04-06T12:57:46.557Z,63.14
2019-04-06T13:00:49.478Z,63.39
2019-04-06T13:03:14.318Z,63.35
2019-04-06T13:06:00.999Z,60.82
2019-04-06T13:08:45.677Z,59.86
2019-04-06T13:11:30.904Z,59.88
2019-04-06T13:15:05.617Z,59.59
2019-04-06T13:17:55.458Z,59.12
2019-04-06T13:20:45.451Z,59.90
2019-04-06T13:23:34.971Z,61.22
2019-04-06T13:26:20.869Z,60.12
2019-04-06T13:29:06.998Z,62.56
2019-04-06T13:31:43.341Z,62.55
2019-04-06T13:34:39.149Z,61.50
2019-04-06T13:37:13.700Z,59.57
2019-04-06T13:40:09.373Z,58.15
2019-04-06T13:42:54.998Z,58.01
2019-04-06T13:45:41.720Z,57.44
2019-04-06T13:48:27.358Z,57.27
2019-04-06T13:51:04.427Z,57.00
2019-04-06T13:53:57.311Z,58.78
2019-04-06T13:56:43.448Z,59.54
2019-04-06T13:59:28.407Z,60.96
2019-04-06T14:02:14.124Z,60.36
2019-04-06T14:05:13.107Z,59.81
2019-04-06T14:07:58.177Z,60.46
2019-04-06T14:10:35.342Z,60.85
2019-04-06T14:13:20.862Z,59.94
2019-04-06T14:16:05.690Z,60.01
2019-04-06T14:18:58.112Z,61.93
2019-04-06T14:21:37.718Z,62.63
2019-04-06T14:24:36.760Z,62.86
2019-04-06T14:27:23.741Z,62.11
2019-04-06T14:30:13.584Z,62.85
2019-04-06T14:32:56.752Z,63.30
2019-04-06T14:35:50.035Z,63.94
2019-04-06T14:38:39.874Z,64.91
2019-04-06T14:41:42.058Z,67.02
2019-04-06T14:44:40.781Z,68.02
2019-04-06T14:47:33.273Z,68.59
2019-04-06T14:50:19.981Z,68.57
2019-04-06T14:53:22.003Z,67.59
2019-04-06T14:56:07.257Z,67.10
2019-04-06T14:58:53.953Z,68.33
2019-04-06T15:01:51.106Z,68.28
2019-04-06T15:04:28.053Z,68.10
2019-04-06T15:07:12.344Z,69.09
2019-04-06T15:09:58.112Z,68.21
2019-04-06T15:12:34.523Z,69.67
2019-04-06T15:15:24.038Z,70.25
2019-04-06T15:18:10.739Z,70.72
2019-04-06T15:20:53.254Z,70.96
2019-04-06T15:23:36.749Z,70.33
2019-04-06T15:26:14.260Z,69.25
2019-04-06T15:29:00.412Z,70.28
2019-04-06T15:31:52.800Z,70.96
2019-04-06T15:34:43.766Z,71.27
2019-04-06T15:37:36.539Z,71.37
2019-04-06T15:40:29.960Z,71.87
2019-04-06T15:43:06.776Z,72.71
2019-04-06T15:45:44.523Z,72.87
2019-04-06T15:48:38.030Z,73.26
2019-04-06T15:51:19.791Z,73.41
2019-04-06T15:54:21.730Z,72.79
2019-04-06T15:57:20.403Z,73.06
2019-04-06T15:59:53.664Z,72.40
2019-04-06T16:02:46.814Z,72.97
2019-04-06T16:05:22.963Z,73.82
2019-04-06T16:08:18.708Z,73.40
2019-04-06T16:11:04.358Z,73.25
2019-04-06T16:13:53.958Z,74.47
2019-04-06T16:16:41.022Z,75.44
2019-04-06T16:19:23.762Z,76.05
2019-04-06T16:22:10.426Z,76.18
2019-04-06T16:24:57.091Z,76.52
2019-04-06T16:27:49.862Z,76.47
2019-04-06T16:30:35.632Z,76.66
2019-04-06T16:33:37.634Z,76.95
2019-04-06T16:36:18.945Z,76.87
2019-04-06T16:39:04.529Z,77.21
2019-04-06T16:41:56.524Z,77.20
2019-04-06T16:44:45.330Z,77.75
2019-04-06T16:47:34.803Z,78.51
2019-04-06T16:50:42.817Z,78.66
2019-04-06T16:53:29.465Z,78.97
2019-04-06T16:56:11.115Z,79.49
2019-04-06T16:58:56.393Z,80.16
2019-04-06T17:01:46.095Z,80.33
2019-04-06T17:04:34.412Z,80.59
2019-04-06T17:07:24.196Z,80.64
2019-04-06T17:10:10.841Z,81.17
2019-04-06T17:13:03.852Z,81.58
2019-04-06T17:15:40.436Z,82.22
2019-04-06T17:18:23.660Z,82.85
2019-04-06T17:21:00.052Z,83.42
2019-04-06T17:23:45.566Z,84.04
2019-04-06T17:26:31.298Z,84.96
2019-04-06T17:29:24.456Z,85.79
2019-04-06T17:32:08.656Z,86.40
2019-04-06T17:34:54.254Z,86.84
2019-04-06T17:37:54.383Z,87.22
2019-04-06T17:40:39.545Z,87.69
2019-04-06T17:43:41.578Z,88.24
2019-04-06T17:46:40.206Z,88.81
2019-04-06T17:49:39.184Z,89.67
2019-04-06T17:52:34.895Z,90.55
2019-04-06T17:55:27.694Z,91.09
2019-04-06T17:58:06.851Z,91.81
2019-04-06T18:01:06.053Z,92.21
2019-04-06T18:04:01.678Z,92.85
2019-04-06T18:06:41.038Z,93.38
2019-04-06T18:09:16.863Z,93.99
2019-04-06T18:12:03.491Z,94.67
2019-04-06T18:14:30.580Z,95.51
2019-04-06T18:16:58.286Z,96.16
2019-04-06T18:19:25.380Z,96.59
2019-04-06T18:21:52.849Z,97.26
2019-04-06T18:24:20.231Z,98.16
2019-04-06T18:26:47.608Z,99.11
2019-04-06T18:29:15.151Z,99.63
2019-04-06T18:31:48.416Z,100.00
2019-04-06T18:34:16.059Z,100.00
2019-04-06T18:36:53.449Z,100.00
2019-04-06T18:39:21.274Z,100.00
2019-04-06T18:41:48.828Z,100.00
2019-04-06T18:44:16.531Z,100.00
2019-04-06T18:46:43.827Z,100.00
2019-04-06T18:49:10.966Z,100.00
2019-04-06T18:51:38.006Z,100.00
2019-04-06T18:54:05.303Z,100.00
2019-04-06T18:56:32.493Z,100.00
2019-04-06T18:58:59.615Z,100.00
2019-04-06T19:01:26.810Z,100.00
2019-04-06T19:03:53.943Z,100.00
2019-04-06T19:06:22.841Z,100.00
2019-04-06T19:08:50.245Z,100.00
2019-04-06T19:11:17.444Z,100.00
2019-04-06T19:13:44.689Z,100.00
2019-04-06T19:16:11.762Z,100.00
2019-04-06T19:18:38.929Z,100.00
2019-04-06T19:21:06.020Z,100.00
2019-04-06T19:23:33.399Z,100.00
2019-04-06T19:26:01.821Z,100.00
2019-04-06T19:28:29.092Z,100.00
2019-04-06T19:30:57.638Z,100.00
2019-04-06T19:33:26.538Z,100.00
2019-04-06T19:35:53.829Z,100.00
2019-04-06T19:38:20.919Z,100.00
2019-04-06T19:40:48.527Z,100.00
2019-04-06T19:43:17.723Z,100.00
2019-04-06T19:45:44.925Z,100.00
2019-04-06T19:48:12.469Z,100.00
2019-04-06T19:50:39.543Z,100.00
2019-04-06T19:53:06.784Z,100.00
2019-04-06T19:55:35.726Z,100.00
2019-04-06T19:58:02.798Z,100.00
2019-04-06T20:00:30.118Z,100.00
2019-04-06T20:02:57.833Z,100.00
2019-04-06T20:05:25.230Z,100.00
2019-04-06T20:07:52.481Z,100.00
2019-04-06T20:10:19.512Z,100.00
2019-04-06T20:12:47.044Z,100.00
2019-04-06T20:15:14.712Z,100.00
2019-04-06T20:17:41.792Z,100.00
2019-04-06T20:20:09.072Z,100.00
2019-04-06T20:22:36.511Z,100.00
2019-04-06T20:25:05.162Z,100.00
2019-04-06T20:27:32.437Z,100.00
2019-04-06T20:29:59.957Z,100.00
2019-04-06T20:32:27.252Z,100.00
2019-04-06T20:34:54.939Z,100.00
2019-04-06T20:37:22.070Z,100.00
2019-04-06T20:39:50.427Z,100.00
2019-04-06T20:44:49.222Z,100.00
2019-04-06T20:47:16.833Z,100.00
2019-04-06T20:49:43.927Z,100.00
2019-04-06T20:52:11.055Z,100.00
2019-04-06T20:54:38.462Z,100.00
2019-04-06T20:57:05.491Z,100.00
2019-04-06T20:59:37.553Z,100.00
2019-04-06T21:02:04.718Z,100.00
2019-04-06T21:04:31.878Z,100.00
2019-04-06T21:06:59.213Z,100.00
2019-04-06T21:09:26.778Z,100.00
2019-04-06T21:11:54.634Z,100.00
2019-04-06T21:14:29.997Z,100.00
2019-04-06T21:16:57.542Z,100.00
2019-04-06T21:19:24.855Z,100.00
2019-04-06T21:21:52.145Z,100.00
2019-04-06T21:24:19.367Z,100.00
2019-04-06T21:26:46.855Z,100.00
2019-04-06T21:29:14.186Z,100.00
2019-04-06T21:31:41.947Z,100.00
2019-04-06T21:34:12.100Z,100.00
2019-04-06T21:36:38.192Z,100.00
2019-04-06T21:39:48.454Z,100.00
2019-04-06T21:42:16.230Z,100.00
2019-04-06T21:44:43.570Z,100.00
2019-04-06T21:47:11.002Z,100.00
2019-04-06T21:49:38.975Z,100.00
2019-04-06T21:52:07.583Z,100.00
2019-04-06T21:54:34.775Z,100.00
2019-04-06T21:57:01.894Z,100.00
2019-04-06T21:59:30.092Z,100.00
2019-04-06T22:01:57.199Z,100.00
2019-04-06T22:04:26.669Z,100.00
2019-04-06T22:06:53.997Z,100.00
2019-04-06T22:09:21.968Z,100.00
2019-04-06T22:11:49.198Z,100.00
2019-04-06T22:14:17.021Z,100.00
2019-04-06T22:16:44.648Z,100.00
2019-04-06T22:19:12.070Z,100.00
2019-04-06T22:21:47.247Z,100.00
2019-04-06T22:24:15.047Z,100.00
2019-04-06T22:26:42.766Z,100.00
2019-04-06T22:29:09.918Z,100.00
2019-04-06T22:31:37.137Z,100.00
2019-04-06T22:34:04.180Z,100.00
2019-04-06T22:36:31.247Z,100.00
2019-04-06T22:38:58.364Z,100.00
2019-04-06T22:41:25.433Z,100.00
2019-04-06T22:43:52.652Z,100.00
2019-04-06T22:46:20.242Z,100.00
2019-04-06T22:48:47.477Z,100.00
2019-04-06T22:51:14.881Z,100.00
2019-04-06T22:53:42.166Z,100.00
2019-04-06T22:56:09.247Z,100.00
2019-04-06T22:58:36.867Z,100.00
2019-04-06T23:01:09.512Z,100.00
2019-04-06T23:04:08.740Z,100.00
2019-04-06T23:06:40.359Z,100.00
2019-04-06T23:09:07.912Z,100.00
2019-04-06T23:11:35.525Z,100.00
2019-04-06T23:14:03.081Z,100.00
2019-04-06T23:16:31.434Z,100.00
2019-04-06T23:18:58.787Z,100.00
2019-04-06T23:21:25.999Z,100.00
2019-04-06T23:23:53.079Z,100.00
2019-04-06T23:26:20.199Z,100.00
2019-04-06T23:28:47.367Z,100.00
2019-04-06T23:31:14.843Z,100.00
2019-04-06T23:33:42.423Z,100.00
2019-04-06T23:36:10.009Z,100.00
2019-04-06T23:38:37.813Z,100.00
2019-04-06T23:41:05.745Z,100.00
2019-04-06T23:43:33.061Z,100.00
2019-04-06T23:46:00.740Z,100.00
2019-04-06T23:48:28.011Z,100.00
2019-04-06T23:50:55.159Z,100.00
2019-04-06T23:53:22.274Z,100.00
2019-04-06T23:55:49.359Z,100.00
2019-04-06T23:58:16.457Z,100.00
